createdAt,value
2019-04-11T00:00:09.051Z,18.30
2019-04-11T00:02:36.453Z,16.63
2019-04-11T00:05:04.861Z,17.30
2019-04-11T00:07:32.107Z,17.23
2019-04-11T00:09:58.952Z,15.90
2019-04-11T00:12:26.277Z,16.43
2019-04-11T00:14:53.933Z,16.43
2019-04-11T00:17:20.324Z,17.57
2019-04-11T00:19:47.487Z,17.43
2019-04-11T00:22:14.258Z,16.70
2019-04-11T00:24:40.389Z,17.30
2019-04-11T00:27:06.581Z,16.27
2019-04-11T00:29:34.445Z,16.23
2019-04-11T00:32:01.274Z,16.77
2019-04-11T00:34:27.366Z,16.30
2019-04-11T00:36:54.806Z,16.17
2019-04-11T00:39:21.597Z,15.13
2019-04-11T00:41:48.248Z,15.50
2019-04-11T00:44:15.380Z,16.07
2019-04-11T00:46:42.552Z,16.27
2019-04-11T00:49:10.217Z,15.60
2019-04-11T00:51:36.470Z,14.57
2019-04-11T00:54:02.915Z,15.30
2019-04-11T00:56:28.964Z,16.73
2019-04-11T00:58:56.092Z,15.73
2019-04-11T01:01:23.972Z,15.23
2019-04-11T01:03:51.580Z,14.80
2019-04-11T01:06:20.444Z,16.60
2019-04-11T01:08:46.665Z,15.43
2019-04-11T01:11:13.957Z,15.17
2019-04-11T01:13:49.183Z,14.90
2019-04-11T01:16:21.228Z,15.63
2019-04-11T01:18:47.277Z,14.60
2019-04-11T01:21:15.801Z,14.37
2019-04-11T01:23:42.952Z,14.57
2019-04-11T01:26:09.324Z,13.97
2019-04-11T01:28:36.335Z,13.70
2019-04-11T01:31:05.241Z,14.00
2019-04-11T01:33:32.207Z,13.70
2019-04-11T01:35:58.545Z,13.03
2019-04-11T01:38:26.380Z,13.47
2019-04-11T01:40:52.437Z,13.70
2019-04-11T01:43:19.787Z,13.13
2019-04-11T01:45:47.004Z,11.73
2019-04-11T01:48:17.463Z,12.60
2019-04-11T01:50:43.868Z,12.90
2019-04-11T01:53:10.912Z,12.07
2019-04-11T01:55:38.691Z,12.60
2019-04-11T01:58:04.956Z,11.90
2019-04-11T02:00:39.921Z,12.17
2019-04-11T02:03:08.936Z,12.10
2019-04-11T02:05:35.383Z,11.30
2019-04-11T02:08:02.808Z,11.57
2019-04-11T02:10:29.969Z,12.17
2019-04-11T02:12:56.392Z,12.80
2019-04-11T02:15:24.475Z,11.00
2019-04-11T02:17:50.924Z,10.87
2019-04-11T02:20:17.648Z,11.80
2019-04-11T02:23:02.599Z,10.80
2019-04-11T02:25:33.955Z,10.30
2019-04-11T02:28:02.283Z,10.73
2019-04-11T02:30:30.675Z,9.63
2019-04-11T02:32:58.263Z,10.40
2019-04-11T02:35:26.844Z,10.17
2019-04-11T02:37:54.950Z,9.97
2019-04-11T02:40:24.179Z,10.10
2019-04-11T02:42:49.863Z,10.07
2019-04-11T02:45:30.739Z,10.00
2019-04-11T02:47:48.204Z,9.30
2019-04-11T02:50:18.655Z,9.77
2019-04-11T02:52:42.767Z,9.83
2019-04-11T02:55:12.005Z,9.73
2019-04-11T02:57:38.561Z,9.20
2019-04-11T03:00:08.576Z,9.10
2019-04-11T03:02:37.057Z,8.27
2019-04-11T03:05:06.936Z,9.60
2019-04-11T03:07:34.103Z,9.50
2019-04-11T03:10:02.937Z,8.90
2019-04-11T03:12:31.665Z,8.60
2019-04-11T03:15:16.155Z,8.47
2019-04-11T03:17:32.850Z,8.20
2019-04-11T03:20:08.337Z,8.47
2019-04-11T03:22:24.828Z,9.13
2019-04-11T03:24:53.496Z,8.33
2019-04-11T03:27:22.234Z,8.70
2019-04-11T03:29:49.489Z,9.40
2019-04-11T03:33:11.290Z,8.07
2019-04-11T03:35:35.574Z,8.30
2019-04-11T03:37:40.088Z,8.17
2019-04-11T03:39:59.575Z,8.00
2019-04-11T03:42:28.568Z,8.50
2019-04-11T03:44:46.304Z,7.70
2019-04-11T03:47:23.644Z,7.87
2019-04-11T03:49:44.954Z,7.90
2019-04-11T03:52:05.814Z,7.63
2019-04-11T03:54:36.270Z,8.87
2019-04-11T03:57:03.581Z,7.73
2019-04-11T03:59:31.549Z,7.00
2019-04-11T04:02:00.067Z,7.50
2019-04-11T04:04:29.092Z,7.40
2019-04-11T04:06:58.473Z,8.13
2019-04-11T04:09:28.078Z,8.10
2019-04-11T04:11:56.896Z,8.37
2019-04-11T04:14:26.372Z,7.23
2019-04-11T04:17:11.822Z,6.90
2019-04-11T04:19:54.293Z,6.87
2019-04-11T04:22:31.417Z,7.17
2019-04-11T04:25:00.922Z,7.43
2019-04-11T04:27:30.352Z,6.30
2019-04-11T04:29:59.586Z,7.27
2019-04-11T04:32:25.309Z,7.07
2019-04-11T04:34:53.103Z,7.73
2019-04-11T04:37:23.943Z,6.87
2019-04-11T04:40:12.131Z,6.80
2019-04-11T04:42:26.390Z,6.97
2019-04-11T04:44:48.914Z,6.67
2019-04-11T04:47:22.151Z,8.03
2019-04-11T04:49:43.760Z,6.80
2019-04-11T04:52:14.072Z,6.47
2019-04-11T04:54:40.841Z,7.60
2019-04-11T04:57:08.849Z,6.63
2019-04-11T04:59:37.538Z,6.90
2019-04-11T05:02:03.924Z,7.87
2019-04-11T05:04:31.807Z,6.50
2019-04-11T05:06:59.039Z,7.10
2019-04-11T05:09:25.662Z,7.03
2019-04-11T05:11:53.081Z,6.77
2019-04-11T05:14:20.843Z,8.03
2019-04-11T05:16:48.231Z,7.90
2019-04-11T05:19:14.979Z,7.67
2019-04-11T05:21:41.756Z,7.77
2019-04-11T05:24:07.840Z,6.77
2019-04-11T05:26:33.897Z,8.77
2019-04-11T05:29:00.609Z,7.00
2019-04-11T05:31:27.525Z,7.27
2019-04-11T05:33:53.893Z,7.00
2019-04-11T05:36:20.712Z,7.23
2019-04-11T05:38:46.832Z,6.83
2019-04-11T05:41:13.839Z,7.67
2019-04-11T05:43:41.750Z,6.20
2019-04-11T05:46:24.522Z,6.50
2019-04-11T05:48:38.934Z,6.93
2019-04-11T05:51:06.839Z,6.40
2019-04-11T05:53:36.406Z,7.10
2019-04-11T05:56:07.194Z,6.43
2019-04-11T05:58:42.118Z,6.83
2019-04-11T06:01:24.411Z,6.43
2019-04-11T06:03:53.650Z,6.40
2019-04-11T06:06:22.500Z,6.20
2019-04-11T06:08:51.522Z,6.90
2019-04-11T06:11:24.168Z,6.53
2019-04-11T06:14:09.164Z,7.37
2019-04-11T06:16:43.218Z,6.13
2019-04-11T06:19:08.066Z,6.63
2019-04-11T06:21:37.229Z,6.23
2019-04-11T06:24:21.684Z,5.63
2019-04-11T06:26:52.829Z,6.43
2019-04-11T06:29:26.401Z,5.83
2019-04-11T06:32:03.427Z,6.30
2019-04-11T06:34:35.574Z,6.23
2019-04-11T06:37:19.287Z,5.90
2019-04-11T06:39:50.036Z,7.03
2019-04-11T06:42:32.694Z,6.50
2019-04-11T06:45:15.592Z,6.03
2019-04-11T06:47:45.133Z,6.53
2019-04-11T06:50:27.013Z,6.57
2019-04-11T06:52:54.231Z,5.80
2019-04-11T06:55:40.232Z,5.70
2019-04-11T06:58:08.498Z,6.50
2019-04-11T07:00:35.573Z,6.20
2019-04-11T07:03:03.892Z,5.90
2019-04-11T07:05:33.168Z,5.93
2019-04-11T07:08:05.543Z,6.00
2019-04-11T07:10:38.205Z,7.33
2019-04-11T07:13:06.360Z,6.30
2019-04-11T07:15:39.768Z,6.67
2019-04-11T07:18:25.191Z,6.70
2019-04-11T07:20:56.355Z,5.60
2019-04-11T07:23:44.077Z,6.13
2019-04-11T07:26:12.174Z,6.00
2019-04-11T07:28:41.497Z,6.27
2019-04-11T07:31:12.795Z,5.73
2019-04-11T07:33:52.225Z,5.93
2019-04-11T07:36:38.371Z,6.40
2019-04-11T07:39:10.631Z,5.70
2019-04-11T07:41:39.413Z,6.60
2019-04-11T07:44:11.777Z,5.90
2019-04-11T07:46:43.002Z,6.07
2019-04-11T07:49:10.124Z,6.47
2019-04-11T07:51:38.607Z,6.97
2019-04-11T07:54:06.015Z,6.27
2019-04-11T07:56:35.284Z,6.40
2019-04-11T07:59:05.073Z,5.73
2019-04-11T08:01:40.379Z,5.83
2019-04-11T08:04:12.717Z,6.53
2019-04-11T08:06:58.567Z,6.90
2019-04-11T08:09:33.520Z,6.40
2019-04-11T08:12:02.436Z,5.73
2019-04-11T08:14:47.173Z,5.93
2019-04-11T08:17:30.799Z,6.70
2019-04-11T08:19:53.166Z,5.90
2019-04-11T08:22:25.204Z,5.97
2019-04-11T08:24:53.259Z,6.00
2019-04-11T08:27:27.544Z,5.90
2019-04-11T08:29:55.598Z,5.60
2019-04-11T08:32:23.540Z,5.93
2019-04-11T08:34:53.415Z,6.07
2019-04-11T08:37:21.907Z,6.00
2019-04-11T08:39:49.132Z,6.27
2019-04-11T08:42:21.212Z,6.20
2019-04-11T08:44:48.034Z,5.83
2019-04-11T08:47:16.168Z,6.63
2019-04-11T08:49:44.019Z,5.27
2019-04-11T08:52:12.109Z,5.90
2019-04-11T08:54:56.340Z,7.20
2019-04-11T08:57:34.006Z,4.97
2019-04-11T09:00:08.312Z,6.10
2019-04-11T09:02:37.297Z,6.30
2019-04-11T09:05:13.646Z,6.63
2019-04-11T09:07:43.557Z,7.07
2019-04-11T09:10:30.196Z,5.67
2019-04-11T09:12:58.614Z,6.90
2019-04-11T09:15:43.220Z,6.90
2019-04-11T09:18:13.349Z,6.33
2019-04-11T09:20:45.893Z,5.93
2019-04-11T09:23:13.332Z,6.03
2019-04-11T09:25:59.881Z,6.33
2019-04-11T09:28:29.122Z,6.13
2019-04-11T09:31:01.121Z,6.30
2019-04-11T09:33:47.072Z,6.37
2019-04-11T09:36:29.535Z,5.93
2019-04-11T09:39:15.076Z,6.37
2019-04-11T09:41:43.432Z,6.97
2019-04-11T09:44:17.644Z,6.10
2019-04-11T09:47:04.127Z,5.97
2019-04-11T09:49:33.130Z,5.60
2019-04-11T09:52:08.785Z,6.83
2019-04-11T09:54:37.476Z,6.20
2019-04-11T09:57:05.765Z,6.93
2019-04-11T09:59:37.048Z,6.40
2019-04-11T10:02:23.240Z,5.87
2019-04-11T10:04:52.276Z,6.70
2019-04-11T10:07:38.096Z,5.60
2019-04-11T10:10:08.637Z,6.43
2019-04-11T10:12:36.730Z,6.63
2019-04-11T10:15:07.147Z,6.60
2019-04-11T10:17:52.284Z,6.07
2019-04-11T10:20:20.374Z,6.53
2019-04-11T10:23:05.262Z,6.53
2019-04-11T10:25:35.035Z,5.87
2019-04-11T10:28:06.473Z,6.67
2019-04-11T10:30:46.524Z,6.10
2019-04-11T10:33:15.035Z,6.63
2019-04-11T10:35:43.158Z,6.33
2019-04-11T10:38:11.957Z,6.07
2019-04-11T10:40:58.735Z,6.37
2019-04-11T10:43:26.537Z,6.80
2019-04-11T10:46:13.241Z,7.30
2019-04-11T10:48:46.956Z,6.27
2019-04-11T10:51:26.752Z,6.40
2019-04-11T10:53:55.430Z,6.80
2019-04-11T10:56:39.214Z,7.60
2019-04-11T10:59:07.303Z,6.40
2019-04-11T11:01:42.305Z,6.70
2019-04-11T11:04:18.039Z,6.63
2019-04-11T11:06:46.924Z,6.57
2019-04-11T11:09:15.365Z,6.27
2019-04-11T11:11:46.579Z,7.17
2019-04-11T11:14:31.273Z,6.43
2019-04-11T11:16:59.523Z,6.73
2019-04-11T11:19:57.602Z,6.70
2019-04-11T11:22:17.067Z,7.10
2019-04-11T11:24:46.304Z,7.00
2019-04-11T11:27:13.787Z,7.27
2019-04-11T11:29:45.331Z,7.57
2019-04-11T11:32:13.605Z,6.50
2019-04-11T11:34:49.282Z,6.60
2019-04-11T11:37:17.562Z,6.40
2019-04-11T11:39:46.959Z,6.70
2019-04-11T11:42:30.716Z,6.03
2019-04-11T11:45:11.052Z,7.63
2019-04-11T11:47:49.046Z,6.60
2019-04-11T11:50:19.828Z,6.50
2019-04-11T11:53:08.142Z,6.83
2019-04-11T11:55:39.500Z,6.80
2019-04-11T11:58:23.672Z,6.97
2019-04-11T12:00:54.075Z,6.50
2019-04-11T12:03:40.497Z,6.83
2019-04-11T12:06:09.609Z,7.03
2019-04-11T12:08:45.354Z,7.03
2019-04-11T12:11:11.128Z,6.50
2019-04-11T12:13:54.363Z,7.27
2019-04-11T12:16:25.935Z,7.37
2019-04-11T12:18:55.023Z,6.70
2019-04-11T12:21:32.607Z,7.07
2019-04-11T12:24:08.104Z,6.50
2019-04-11T12:26:42.724Z,6.83
2019-04-11T12:29:12.788Z,6.17
2019-04-11T12:31:41.825Z,7.10
2019-04-11T12:34:27.852Z,6.83
2019-04-11T12:36:55.101Z,6.37
2019-04-11T12:39:37.023Z,8.10
2019-04-11T12:42:14.106Z,7.27
2019-04-11T12:44:59.751Z,6.80
2019-04-11T12:47:28.780Z,7.80
2019-04-11T12:50:15.193Z,7.03
2019-04-11T12:52:43.179Z,8.03
2019-04-11T12:55:11.620Z,7.50
2019-04-11T12:57:54.647Z,7.80
2019-04-11T13:00:31.378Z,8.40
2019-04-11T13:03:08.441Z,7.43
2019-04-11T13:05:36.412Z,7.33
2019-04-11T13:08:20.928Z,6.77
2019-04-11T13:10:47.284Z,7.43
2019-04-11T13:13:18.300Z,7.23
2019-04-11T13:15:48.300Z,6.90
2019-04-11T13:18:32.599Z,7.23
2019-04-11T13:21:00.840Z,7.57
2019-04-11T13:23:32.104Z,7.53
2019-04-11T13:26:03.107Z,7.83
2019-04-11T13:28:43.792Z,7.67
2019-04-11T13:31:28.712Z,8.00
2019-04-11T13:33:56.663Z,7.90
2019-04-11T13:36:39.360Z,7.90
2019-04-11T13:39:06.358Z,7.87
2019-04-11T13:41:34.692Z,8.80
2019-04-11T13:44:02.942Z,8.40
2019-04-11T13:46:34.182Z,8.37
2019-04-11T13:49:07.939Z,8.23
2019-04-11T13:51:35.920Z,7.97
2019-04-11T13:54:20.354Z,8.87
2019-04-11T13:57:06.712Z,8.30
2019-04-11T13:59:34.676Z,8.57
2019-04-11T14:02:04.597Z,8.47
2019-04-11T14:04:32.579Z,7.47
2019-04-11T14:06:58.996Z,7.27
2019-04-11T14:09:30.753Z,8.97
2019-04-11T14:11:58.437Z,8.80
2019-04-11T14:14:26.419Z,7.47
2019-04-11T14:16:58.489Z,9.00
2019-04-11T14:19:44.840Z,9.20
2019-04-11T14:22:14.206Z,8.33
2019-04-11T14:24:59.207Z,8.27
2019-04-11T14:27:27.383Z,8.47
2019-04-11T14:30:11.757Z,8.23
2019-04-11T14:32:48.619Z,8.23
2019-04-11T14:35:22.435Z,8.43
2019-04-11T14:37:50.783Z,9.37
2019-04-11T14:40:27.782Z,8.60
2019-04-11T14:42:59.043Z,8.43
2019-04-11T14:45:27.108Z,8.20
2019-04-11T14:48:13.327Z,7.63
2019-04-11T14:51:01.117Z,8.20
2019-04-11T14:53:38.272Z,8.90
2019-04-11T14:56:08.998Z,8.73
2019-04-11T14:58:40.087Z,8.87
2019-04-11T15:01:08.351Z,8.70
2019-04-11T15:03:45.556Z,7.67
2019-04-11T15:06:25.887Z,8.80
2019-04-11T15:08:53.878Z,9.20
2019-04-11T15:11:37.960Z,9.10
2019-04-11T15:14:12.636Z,9.10
2019-04-11T15:16:40.979Z,9.07
2019-04-11T15:19:07.044Z,9.87
2019-04-11T15:21:50.200Z,9.97
2019-04-11T15:24:17.207Z,9.63
2019-04-11T15:26:45.189Z,12.73
2019-04-11T15:29:13.740Z,13.30
2019-04-11T15:31:42.957Z,12.00
2019-04-11T15:34:20.136Z,11.60
2019-04-11T15:36:48.412Z,12.23
2019-04-11T15:39:44.098Z,11.63
2019-04-11T15:42:09.235Z,11.30
2019-04-11T15:44:50.695Z,10.13
2019-04-11T15:47:19.039Z,12.33
2019-04-11T15:50:04.347Z,11.97
2019-04-11T15:52:30.432Z,11.30
2019-04-11T15:55:02.361Z,10.50
2019-04-11T15:57:33.329Z,10.83
2019-04-11T16:00:16.213Z,9.17
2019-04-11T16:02:46.956Z,11.23
2019-04-11T16:05:15.523Z,11.97
2019-04-11T16:07:58.753Z,10.87
2019-04-11T16:10:27.028Z,10.87
2019-04-11T16:13:04.230Z,12.13
2019-04-11T16:15:32.296Z,10.80
2019-04-11T16:18:16.687Z,10.73
2019-04-11T16:20:43.385Z,10.67
2019-04-11T16:23:20.476Z,10.73
2019-04-11T16:25:48.739Z,10.33
2019-04-11T16:28:33.168Z,11.83
2019-04-11T16:30:59.224Z,11.30
2019-04-11T16:33:46.179Z,11.40
2019-04-11T16:36:19.688Z,11.20
2019-04-11T16:38:53.523Z,11.00
2019-04-11T16:41:37.789Z,11.27
2019-04-11T16:44:24.804Z,11.47
2019-04-11T16:47:09.044Z,10.97
2019-04-11T16:49:35.472Z,10.10
2019-04-11T16:52:01.519Z,10.07
2019-04-11T16:54:27.935Z,10.90
2019-04-11T16:56:54.420Z,10.60
2019-04-11T16:59:20.659Z,10.43
2019-04-11T17:01:47.471Z,10.80
2019-04-11T17:04:13.859Z,10.67
2019-04-11T17:06:42.446Z,10.30
2019-04-11T17:09:26.582Z,10.83
2019-04-11T17:11:50.852Z,9.53
2019-04-11T17:14:27.609Z,10.47
2019-04-11T17:16:45.270Z,10.50
2019-04-11T17:19:11.784Z,10.83
2019-04-11T17:21:43.509Z,10.70
2019-04-11T17:24:06.732Z,10.40
2019-04-11T17:26:32.843Z,10.80
2019-04-11T17:28:59.181Z,10.17
2019-04-11T17:31:25.980Z,10.53
2019-04-11T17:33:53.229Z,11.17
2019-04-11T17:36:19.720Z,10.93
2019-04-11T17:38:45.776Z,11.37
2019-04-11T17:41:12.126Z,11.03
2019-04-11T17:43:41.998Z,10.80
2019-04-11T17:46:07.605Z,11.50
2019-04-11T17:48:33.664Z,9.73
2019-04-11T17:50:59.765Z,10.87
2019-04-11T17:53:25.861Z,10.10
2019-04-11T17:55:54.255Z,9.67
2019-04-11T17:58:21.181Z,10.23
2019-04-11T18:00:52.167Z,11.47
2019-04-11T18:03:18.546Z,11.10
2019-04-11T18:05:46.648Z,10.50
2019-04-11T18:08:12.605Z,11.23
2019-04-11T18:10:39.083Z,10.67
2019-04-11T18:13:05.523Z,10.10
2019-04-11T18:15:31.990Z,10.50
2019-04-11T18:17:58.368Z,10.07
2019-04-11T18:20:27.224Z,10.70
2019-04-11T18:22:53.528Z,10.60
2019-04-11T18:25:21.511Z,10.83
2019-04-11T18:27:51.685Z,10.47
2019-04-11T18:30:17.995Z,10.63
2019-04-11T18:32:44.418Z,10.90
2019-04-11T18:35:11.996Z,12.17
2019-04-11T18:37:38.835Z,11.37
2019-04-11T18:40:10.207Z,10.77
2019-04-11T18:42:35.796Z,10.03
2019-04-11T18:45:05.800Z,10.30
2019-04-11T18:47:32.244Z,9.90
2019-04-11T18:49:58.352Z,9.67
2019-04-11T18:52:27.668Z,10.03
2019-04-11T18:54:53.135Z,9.83
2019-04-11T18:57:19.240Z,9.47
2019-04-11T18:59:45.939Z,11.07
2019-04-11T19:02:12.080Z,11.27
2019-04-11T19:04:41.955Z,10.13
2019-04-11T19:07:06.987Z,10.20
2019-04-11T19:09:33.823Z,11.40
2019-04-11T19:11:59.878Z,10.47
2019-04-11T19:14:26.583Z,11.93
2019-04-11T19:16:52.683Z,10.27
2019-04-11T19:19:19.320Z,10.80
2019-04-11T19:21:45.900Z,9.60
2019-04-11T19:24:13.069Z,10.50
2019-04-11T19:26:39.877Z,10.77
2019-04-11T19:29:06.375Z,11.00
2019-04-11T19:31:33.492Z,10.30
2019-04-11T19:33:59.540Z,11.07
2019-04-11T19:36:26.020Z,9.93
2019-04-11T19:38:52.073Z,10.30
2019-04-11T19:41:18.303Z,10.50
2019-04-11T19:43:48.905Z,10.83
2019-04-11T19:46:12.914Z,11.27
2019-04-11T19:48:39.400Z,10.33
2019-04-11T19:51:05.821Z,11.07
2019-04-11T19:53:33.019Z,10.57
2019-04-11T19:56:18.240Z,11.53
2019-04-11T19:58:44.400Z,10.10
2019-04-11T20:01:10.509Z,10.07
2019-04-11T20:03:36.569Z,10.27
2019-04-11T20:06:04.190Z,10.30
2019-04-11T20:08:30.300Z,11.20
2019-04-11T20:10:56.643Z,10.50
2019-04-11T20:13:23.081Z,11.33
2019-04-11T20:15:50.582Z,11.20
2019-04-11T20:18:17.151Z,10.77
2019-04-11T20:20:43.908Z,10.77
2019-04-11T20:23:11.478Z,11.27
2019-04-11T20:25:38.319Z,10.80
2019-04-11T20:28:04.365Z,10.10
2019-04-11T20:30:30.768Z,10.50
2019-04-11T20:32:56.832Z,10.90
2019-04-11T20:35:28.645Z,10.80
2019-04-11T20:37:51.277Z,10.07
2019-04-11T20:40:20.447Z,12.20
2019-04-11T20:42:45.688Z,10.43
2019-04-11T20:45:12.539Z,11.30
2019-04-11T20:47:39.800Z,10.83
2019-04-11T20:50:08.017Z,10.60
2019-04-11T20:52:34.424Z,10.57
2019-04-11T20:55:00.480Z,11.17
2019-04-11T20:57:27.253Z,10.57
2019-04-11T20:59:53.303Z,11.43
2019-04-11T21:02:20.166Z,11.70
2019-04-11T21:04:46.256Z,10.30
2019-04-11T21:07:12.675Z,11.27
2019-04-11T21:09:39.011Z,10.27
2019-04-11T21:12:07.438Z,11.37
2019-04-11T21:14:33.677Z,10.33
2019-04-11T21:17:00.093Z,10.87
2019-04-11T21:19:26.144Z,10.00
2019-04-11T21:21:53.274Z,11.20
2019-04-11T21:24:20.449Z,10.73
2019-04-11T21:26:46.501Z,10.80
2019-04-11T21:29:12.920Z,11.20
2019-04-11T21:31:38.971Z,10.90
2019-04-11T21:34:05.416Z,10.50
2019-04-11T21:36:32.172Z,11.10
2019-04-11T21:38:59.011Z,10.77
2019-04-11T21:41:25.483Z,10.80
2019-04-11T21:43:51.923Z,11.77
2019-04-11T21:46:18.355Z,10.37
2019-04-11T21:48:44.773Z,9.90
2019-04-11T21:51:11.398Z,11.53
2019-04-11T21:53:38.706Z,10.87
2019-04-11T21:56:05.420Z,10.07
2019-04-11T21:58:31.495Z,10.83
2019-04-11T22:01:01.645Z,10.90
2019-04-11T22:03:29.115Z,11.67
2019-04-11T22:05:55.163Z,10.67
2019-04-11T22:08:21.211Z,10.40
2019-04-11T22:10:47.299Z,10.93
2019-04-11T22:13:13.572Z,11.30
2019-04-11T22:15:42.087Z,10.90
2019-04-11T22:18:07.595Z,10.70
2019-04-11T22:20:33.651Z,9.90
2019-04-11T22:23:00.368Z,10.37
2019-04-11T22:25:26.430Z,10.07
2019-04-11T22:27:53.899Z,10.73
2019-04-11T22:30:25.103Z,10.60
2019-04-11T22:32:57.473Z,10.40
2019-04-11T22:35:28.590Z,9.77
2019-04-11T22:37:53.199Z,10.87
2019-04-11T22:40:19.263Z,10.57
2019-04-11T22:42:45.751Z,10.40
2019-04-11T22:45:12.188Z,10.90
2019-04-11T22:47:38.995Z,10.47
2019-04-11T22:50:09.914Z,11.33
2019-04-11T22:52:35.393Z,11.20
2019-04-11T22:55:01.471Z,10.87
2019-04-11T22:57:27.519Z,10.40
2019-04-11T22:59:53.570Z,10.27
2019-04-11T23:02:21.815Z,10.07
2019-04-11T23:04:47.869Z,9.70
2019-04-11T23:07:15.012Z,9.70
2019-04-11T23:09:42.553Z,9.77
2019-04-11T23:12:08.880Z,9.40
2019-04-11T23:14:35.350Z,9.50
2019-04-11T23:17:01.519Z,10.10
2019-04-11T23:19:27.944Z,9.93
2019-04-11T23:21:54.302Z,10.80
2019-04-11T23:24:20.724Z,9.73
2019-04-11T23:26:46.799Z,9.00
2019-04-11T23:29:15.896Z,10.00
2019-04-11T23:31:41.504Z,10.23
2019-04-11T23:34:07.791Z,9.90
2019-04-11T23:36:33.843Z,9.70
2019-04-11T23:39:00.554Z,9.50
2019-04-11T23:41:26.605Z,9.17
2019-04-11T23:43:53.319Z,9.37
2019-04-11T23:46:21.408Z,10.20
2019-04-11T23:48:47.723Z,9.40
2019-04-11T23:51:13.798Z,9.90
2019-04-11T23:53:39.848Z,8.80
2019-04-11T23:56:05.936Z,8.73
2019-04-11T23:58:32.615Z,8.43
